createdAt,value
2023-04-11T00:01:13.959Z,12.45
2023-04-11T00:03:41.699Z,15.55
2023-04-11T00:06:09.322Z,8.07
2023-04-11T00:08:36.817Z,13.05
2023-04-11T00:13:31.592Z,11.82
2023-04-11T00:15:59.389Z,9.55
2023-04-11T00:18:27.139Z,14.15
2023-04-11T00:20:54.590Z,11.60
2023-04-11T00:23:22.135Z,10.50
2023-04-11T00:25:49.624Z,13.35
2023-04-11T00:28:17.121Z,15.23
2023-04-11T00:30:44.590Z,11.25
2023-04-11T00:33:12.109Z,12.25
2023-04-11T00:35:41.120Z,7.22
2023-04-11T00:38:08.714Z,8.50
2023-04-11T00:40:36.314Z,9.32
2023-04-11T00:43:04.116Z,11.68
2023-04-11T00:45:31.673Z,10.90
2023-04-11T00:47:59.615Z,11.05
2023-04-11T00:50:27.251Z,12.88
2023-04-11T00:52:57.045Z,13.05
2023-04-11T00:55:24.965Z,20.73
2023-04-11T00:57:54.993Z,7.13
2023-04-11T01:00:23.390Z,13.60
2023-04-11T01:02:51.051Z,14.18
2023-04-11T01:05:19.214Z,11.60
2023-04-11T01:07:50.701Z,11.00
2023-04-11T01:10:19.368Z,7.88
2023-04-11T01:12:47.258Z,12.43
2023-04-11T01:15:15.395Z,9.90
2023-04-11T01:17:43.370Z,14.02
2023-04-11T01:20:13.100Z,10.65
2023-04-11T01:22:43.023Z,12.25
2023-04-11T01:25:11.298Z,9.60
2023-04-11T01:27:38.790Z,12.68
2023-04-11T01:30:07.090Z,12.88
2023-04-11T01:32:35.392Z,10.93
2023-04-11T01:35:05.740Z,11.10
2023-04-11T01:37:33.580Z,14.10
2023-04-11T01:40:01.747Z,13.73
2023-04-11T01:42:30.832Z,10.95
2023-04-11T01:44:59.557Z,10.82
2023-04-11T01:47:27.715Z,10.95
2023-04-11T01:49:56.043Z,9.30
2023-04-11T01:52:24.945Z,10.38
2023-04-11T01:54:52.423Z,9.73
2023-04-11T01:59:47.449Z,11.85
2023-04-11T02:02:15.958Z,12.70
2023-04-11T02:04:43.692Z,9.80
2023-04-11T02:07:12.311Z,13.95
2023-04-11T02:09:39.858Z,10.73
2023-04-11T02:14:43.105Z,12.93
2023-04-11T02:17:11.155Z,10.93
2023-04-11T02:19:45.416Z,12.77
2023-04-11T02:22:14.168Z,15.85
2023-04-11T02:24:42.277Z,11.07
2023-04-11T02:27:11.130Z,11.82
2023-04-11T02:29:38.716Z,13.20
2023-04-11T02:32:06.397Z,12.50
2023-04-11T02:34:33.922Z,11.98
2023-04-11T02:37:03.242Z,19.70
2023-04-11T02:39:30.672Z,11.55
2023-04-11T02:41:58.221Z,8.65
2023-04-11T02:44:26.441Z,21.55
2023-04-11T02:46:56.172Z,15.68
2023-04-11T02:49:25.098Z,12.45
2023-04-11T02:51:53.434Z,15.10
2023-04-11T02:54:21.168Z,14.80
2023-04-11T02:56:48.781Z,13.82
2023-04-11T03:01:45.601Z,12.68
2023-04-11T03:04:13.199Z,15.40
2023-04-11T03:06:52.240Z,16.00
2023-04-11T03:09:20.582Z,14.18
2023-04-11T03:11:48.458Z,10.73
2023-04-11T03:14:16.677Z,8.50
2023-04-11T03:19:12.500Z,20.88
2023-04-11T03:21:39.936Z,16.10
2023-04-11T03:24:07.942Z,9.50
2023-04-11T03:26:35.591Z,16.08
2023-04-11T03:29:09.874Z,14.93
2023-04-11T03:31:48.182Z,21.65
2023-04-11T03:34:16.165Z,16.33
2023-04-11T03:36:44.004Z,14.90
2023-04-11T03:39:12.169Z,15.50
2023-04-11T03:41:39.914Z,13.95
2023-04-11T03:44:09.874Z,16.02
2023-04-11T03:46:38.178Z,14.07
2023-04-11T03:49:06.196Z,15.50
2023-04-11T03:51:34.251Z,18.10
2023-04-11T03:54:04.945Z,11.48
2023-04-11T03:56:36.968Z,13.95
2023-04-11T03:59:05.520Z,16.90
2023-04-11T04:01:46.639Z,15.35
2023-04-11T04:04:15.352Z,16.17
2023-04-11T04:06:46.755Z,18.83
2023-04-11T04:09:14.318Z,16.15
2023-04-11T04:11:59.621Z,14.07
2023-04-11T04:14:39.888Z,13.20
2023-04-11T04:17:08.352Z,18.40
2023-04-11T04:19:35.764Z,13.60
2023-04-11T04:22:03.944Z,19.17
2023-04-11T04:24:39.493Z,19.30
2023-04-11T04:27:18.380Z,16.63
2023-04-11T04:29:48.315Z,18.92
2023-04-11T04:32:25.141Z,15.85
2023-04-11T04:34:59.030Z,14.02
2023-04-11T04:37:30.533Z,16.02
2023-04-11T04:40:12.214Z,20.13
2023-04-11T04:42:58.250Z,13.93
2023-04-11T04:45:36.291Z,15.30
2023-04-11T04:48:04.366Z,10.65
2023-04-11T04:50:32.598Z,17.58
2023-04-11T04:53:00.117Z,19.83
2023-04-11T04:57:56.849Z,15.40
2023-04-11T05:00:24.601Z,12.50
2023-04-11T05:02:57.060Z,14.50
2023-04-11T05:05:29.300Z,14.35
2023-04-11T05:07:56.875Z,15.50
2023-04-11T05:10:24.571Z,13.80
2023-04-11T05:12:53.654Z,18.25
2023-04-11T05:15:23.471Z,11.90
2023-04-11T05:17:51.008Z,14.23
2023-04-11T05:20:19.688Z,14.60
2023-04-11T05:22:50.404Z,19.50
2023-04-11T05:25:18.919Z,17.75
2023-04-11T05:27:46.956Z,12.38
2023-04-11T05:30:14.919Z,13.70
2023-04-11T05:32:43.150Z,13.75
2023-04-11T05:35:11.140Z,18.30
2023-04-11T05:37:56.523Z,14.18
2023-04-11T05:40:23.981Z,13.38
2023-04-11T05:45:19.580Z,16.75
2023-04-11T05:47:47.035Z,16.10
2023-04-11T05:50:15.321Z,18.13
2023-04-11T05:52:42.775Z,14.73
2023-04-11T05:55:11.238Z,12.38
2023-04-11T05:57:38.611Z,29.60
2023-04-11T06:02:42.122Z,19.65
2023-04-11T06:05:12.020Z,17.80
2023-04-11T06:07:40.194Z,22.08
2023-04-11T06:10:09.035Z,18.77
2023-04-11T06:12:36.897Z,11.80
2023-04-11T06:15:05.126Z,18.20
2023-04-11T06:17:32.828Z,18.67
2023-04-11T06:20:00.314Z,12.65
2023-04-11T06:22:27.919Z,21.05
2023-04-11T06:24:55.333Z,18.55
2023-04-11T06:27:22.981Z,17.35
2023-04-11T06:29:50.599Z,19.55
2023-04-11T06:32:18.334Z,19.27
2023-04-11T06:34:45.793Z,21.08
2023-04-11T06:37:13.280Z,17.20
2023-04-11T06:39:40.983Z,12.27
2023-04-11T06:42:08.549Z,14.75
2023-04-11T06:44:36.121Z,21.48
2023-04-11T06:47:03.836Z,18.33
2023-04-11T06:49:31.491Z,20.90
2023-04-11T06:52:00.684Z,16.35
2023-04-11T06:54:28.181Z,19.65
2023-04-11T06:56:57.314Z,19.15
2023-04-11T06:59:24.929Z,25.33
2023-04-11T07:01:52.480Z,19.13
2023-04-11T07:04:20.106Z,19.33
2023-04-11T07:06:48.102Z,17.88
2023-04-11T07:09:15.646Z,13.23
2023-04-11T07:11:43.305Z,30.92
2023-04-11T07:14:10.826Z,14.45
2023-04-11T07:16:39.073Z,14.50
2023-04-11T07:19:06.977Z,26.15
2023-04-11T07:21:34.915Z,22.98
2023-04-11T07:24:02.471Z,21.77
2023-04-11T07:26:32.777Z,25.10
2023-04-11T07:29:01.063Z,17.85
2023-04-11T07:31:28.495Z,19.35
2023-04-11T07:33:56.407Z,22.65
2023-04-11T07:36:24.005Z,19.05
2023-04-11T07:38:52.407Z,14.32
2023-04-11T07:41:19.810Z,24.02
2023-04-11T07:43:47.254Z,21.63
2023-04-11T07:48:43.356Z,19.58
2023-04-11T07:51:11.108Z,20.50
2023-04-11T07:53:38.653Z,18.10
2023-04-11T07:56:06.483Z,21.35
2023-04-11T07:58:33.926Z,16.67
2023-04-11T08:01:02.731Z,22.30
2023-04-11T08:03:30.789Z,19.17
2023-04-11T08:05:58.425Z,13.90
2023-04-11T08:08:26.564Z,17.05
2023-04-11T08:10:53.972Z,17.10
2023-04-11T08:13:21.503Z,16.33
2023-04-11T08:15:49.369Z,18.95
2023-04-11T08:18:21.535Z,19.17
2023-04-11T08:20:49.560Z,15.40
2023-04-11T08:23:19.461Z,20.05
2023-04-11T08:25:46.990Z,18.48
2023-04-11T08:28:15.337Z,16.40
2023-04-11T08:30:42.834Z,19.13
2023-04-11T08:33:10.321Z,24.58
2023-04-11T08:35:38.253Z,37.53
2023-04-11T08:38:06.247Z,38.13
2023-04-11T08:40:33.882Z,25.58
2023-04-11T08:43:01.663Z,30.08
2023-04-11T08:45:29.889Z,33.90
2023-04-11T08:47:57.384Z,29.58
2023-04-11T08:50:26.401Z,22.60
2023-04-11T08:52:54.445Z,30.50
2023-04-11T08:55:22.055Z,22.65
2023-04-11T08:57:53.771Z,29.45
2023-04-11T09:00:24.288Z,21.55
2023-04-11T09:03:03.031Z,23.50
2023-04-11T09:05:32.664Z,22.33
2023-04-11T09:08:02.707Z,21.63
2023-04-11T09:10:30.502Z,27.80
2023-04-11T09:12:58.156Z,20.83
2023-04-11T09:15:30.095Z,14.57
2023-04-11T09:18:00.635Z,19.80
2023-04-11T09:20:31.443Z,21.50
2023-04-11T09:22:59.233Z,19.70
2023-04-11T09:25:27.030Z,19.30
2023-04-11T09:28:14.725Z,21.48
2023-04-11T09:30:52.807Z,22.33
2023-04-11T09:33:23.252Z,18.95
2023-04-11T09:35:54.048Z,23.23
2023-04-11T09:38:36.090Z,17.48
2023-04-11T09:41:05.009Z,18.67
2023-04-11T09:43:55.890Z,24.55
2023-04-11T09:46:25.065Z,18.20
2023-04-11T09:48:54.895Z,21.05
2023-04-11T09:53:55.136Z,22.27
2023-04-11T09:56:24.206Z,15.70
2023-04-11T09:58:53.110Z,14.85
2023-04-11T10:01:21.265Z,11.23
2023-04-11T10:03:51.204Z,13.02
2023-04-11T10:06:35.052Z,22.70
2023-04-11T10:09:11.508Z,14.57
2023-04-11T10:11:44.207Z,17.35
2023-04-11T10:14:38.094Z,19.15
2023-04-11T10:17:20.728Z,15.57
2023-04-11T10:19:56.590Z,12.32
2023-04-11T10:22:46.640Z,15.15
2023-04-11T10:25:21.875Z,15.23
2023-04-11T10:27:53.641Z,16.33
2023-04-11T10:30:39.767Z,12.70
2023-04-11T10:33:17.686Z,15.47
2023-04-11T10:36:11.009Z,14.60
2023-04-11T10:38:48.627Z,16.48
2023-04-11T10:41:34.435Z,9.98
2023-04-11T10:44:18.355Z,15.00
2023-04-11T10:46:51.670Z,13.80
2023-04-11T10:49:39.774Z,9.40
2023-04-11T10:52:22.244Z,14.23
2023-04-11T10:54:51.748Z,12.10
2023-04-11T10:57:20.264Z,16.67
2023-04-11T10:59:50.740Z,13.98
2023-04-11T11:02:20.049Z,12.90
2023-04-11T11:04:49.443Z,15.93
2023-04-11T11:07:17.545Z,16.70
2023-04-11T11:09:51.397Z,16.92
2023-04-11T11:12:19.071Z,10.27
2023-04-11T11:14:47.543Z,16.63
2023-04-11T11:17:16.741Z,13.50
2023-04-11T11:19:45.280Z,14.85
2023-04-11T11:22:25.645Z,10.98
2023-04-11T11:24:53.542Z,18.10
2023-04-11T11:27:22.900Z,15.38
2023-04-11T11:29:51.493Z,15.07
2023-04-11T11:32:30.042Z,13.90
2023-04-11T11:34:58.937Z,12.82
2023-04-11T11:37:26.349Z,13.35
2023-04-11T11:39:54.371Z,16.70
2023-04-11T11:42:22.003Z,14.07
2023-04-11T11:44:49.567Z,8.43
2023-04-11T11:47:17.124Z,13.52
2023-04-11T11:49:48.974Z,16.50
2023-04-11T11:52:37.751Z,13.20
2023-04-11T11:55:11.203Z,9.38
2023-04-11T11:57:49.925Z,9.68
2023-04-11T12:00:26.287Z,12.82
2023-04-11T12:02:55.200Z,14.32
2023-04-11T12:05:25.138Z,15.48
2023-04-11T12:07:55.094Z,13.20
2023-04-11T12:10:22.544Z,10.15
2023-04-11T12:12:53.199Z,11.43
2023-04-11T12:15:24.350Z,9.15
2023-04-11T12:17:53.545Z,14.05
2023-04-11T12:20:26.698Z,8.10
2023-04-11T12:22:55.322Z,14.50
2023-04-11T12:25:23.292Z,9.98
2023-04-11T12:27:51.016Z,10.52
2023-04-11T12:30:18.617Z,15.68
2023-04-11T12:32:46.503Z,14.35
2023-04-11T12:35:14.094Z,10.52
2023-04-11T12:37:41.800Z,12.80
2023-04-11T12:40:13.001Z,11.40
2023-04-11T12:42:53.485Z,12.95
2023-04-11T12:45:24.635Z,11.15
2023-04-11T12:47:54.055Z,10.00
2023-04-11T12:50:23.666Z,11.27
2023-04-11T12:52:51.995Z,16.73
2023-04-11T12:55:19.589Z,13.80
2023-04-11T12:57:47.188Z,11.82
2023-04-11T13:00:15.465Z,12.13
2023-04-11T13:02:45.229Z,13.50
2023-04-11T13:05:17.011Z,12.05
2023-04-11T13:07:45.554Z,12.73
2023-04-11T13:10:16.886Z,14.38
2023-04-11T13:12:45.803Z,12.30
2023-04-11T13:15:17.185Z,8.82
2023-04-11T13:17:45.013Z,10.43
2023-04-11T13:20:15.277Z,12.82
2023-04-11T13:22:43.601Z,12.85
2023-04-11T13:25:12.491Z,10.60
2023-04-11T13:27:41.500Z,16.98
2023-04-11T13:30:10.742Z,11.02
2023-04-11T13:32:39.346Z,12.77
2023-04-11T13:35:07.342Z,12.45
2023-04-11T13:37:34.997Z,12.00
2023-04-11T13:40:03.127Z,12.07
2023-04-11T13:42:31.488Z,15.60
2023-04-11T13:44:58.877Z,9.95
2023-04-11T13:47:26.662Z,8.45
2023-04-11T13:49:54.168Z,13.52
2023-04-11T13:52:22.986Z,15.32
2023-04-11T13:54:50.711Z,14.55
2023-04-11T13:57:18.165Z,10.52
2023-04-11T13:59:45.584Z,7.85
2023-04-11T14:02:13.133Z,7.05
2023-04-11T14:04:40.700Z,11.75
2023-04-11T14:07:08.340Z,11.35
2023-04-11T14:09:36.029Z,9.20
2023-04-11T14:12:03.731Z,9.40
2023-04-11T14:14:31.377Z,11.68
2023-04-11T14:16:58.898Z,10.30
2023-04-11T14:19:26.587Z,8.65
2023-04-11T14:21:54.268Z,8.48
2023-04-11T14:24:22.396Z,10.82
2023-04-11T14:26:50.428Z,7.95
2023-04-11T14:29:19.125Z,8.40
2023-04-11T14:31:47.956Z,9.23
2023-04-11T14:34:16.230Z,13.02
2023-04-11T14:36:43.891Z,9.00
2023-04-11T14:39:11.878Z,8.40
2023-04-11T14:41:39.408Z,8.27
2023-04-11T14:44:07.254Z,9.45
2023-04-11T14:46:35.706Z,10.35
2023-04-11T14:49:03.703Z,10.45
2023-04-11T14:51:31.456Z,11.48
2023-04-11T14:53:59.959Z,6.28
2023-04-11T14:56:27.801Z,12.18
2023-04-11T14:58:55.714Z,11.60
2023-04-11T15:01:23.369Z,12.90
2023-04-11T15:03:50.869Z,5.95
2023-04-11T15:06:18.797Z,10.98
2023-04-11T15:08:46.489Z,6.25
2023-04-11T15:11:14.105Z,6.63
2023-04-11T15:13:41.513Z,10.05
2023-04-11T15:16:09.006Z,10.75
2023-04-11T15:18:36.425Z,8.10
2023-04-11T15:21:04.211Z,10.32
2023-04-11T15:23:31.800Z,9.63
2023-04-11T15:26:01.166Z,17.42
2023-04-11T15:28:33.873Z,8.32
2023-04-11T15:31:02.659Z,10.95
2023-04-11T15:33:31.943Z,8.63
2023-04-11T15:36:00.743Z,8.95
2023-04-11T15:38:28.864Z,12.05
2023-04-11T15:40:59.342Z,13.73
2023-04-11T15:43:27.594Z,10.30
2023-04-11T15:45:55.054Z,6.10
2023-04-11T15:48:22.554Z,7.53
2023-04-11T15:50:50.960Z,6.72
2023-04-11T15:53:18.614Z,12.38
2023-04-11T15:55:47.762Z,6.00
2023-04-11T15:58:15.720Z,7.53
2023-04-11T16:00:43.955Z,6.65
2023-04-11T16:03:11.816Z,10.57
2023-04-11T16:05:43.313Z,9.20
2023-04-11T16:08:11.137Z,8.82
2023-04-11T16:10:38.729Z,8.55
2023-04-11T16:13:06.243Z,11.82
2023-04-11T16:15:33.713Z,9.07
2023-04-11T16:18:01.376Z,9.30
2023-04-11T16:20:28.952Z,7.70
2023-04-11T16:22:56.479Z,12.43
2023-04-11T16:25:24.002Z,13.13
2023-04-11T16:27:51.618Z,6.18
2023-04-11T16:30:19.333Z,12.88
2023-04-11T16:32:47.056Z,10.57
2023-04-11T16:35:14.503Z,10.65
2023-04-11T16:37:42.099Z,9.32
2023-04-11T16:40:12.662Z,12.85
2023-04-11T16:42:40.591Z,9.25
2023-04-11T16:45:12.226Z,14.65
2023-04-11T16:47:39.831Z,11.73
2023-04-11T16:50:07.790Z,14.85
2023-04-11T16:52:35.207Z,13.70
2023-04-11T16:57:33.412Z,10.85
2023-04-11T17:00:06.387Z,10.45
2023-04-11T17:02:34.062Z,13.07
2023-04-11T17:05:01.608Z,15.20
2023-04-11T17:07:29.406Z,8.98
2023-04-11T17:09:57.051Z,10.10
2023-04-11T17:12:24.750Z,11.35
2023-04-11T17:14:52.786Z,14.85
2023-04-11T17:17:21.475Z,17.42
2023-04-11T17:19:49.022Z,14.35
2023-04-11T17:22:16.639Z,15.77
2023-04-11T17:24:44.026Z,14.15
2023-04-11T17:27:11.489Z,12.95
2023-04-11T17:32:06.457Z,14.20
2023-04-11T17:34:34.080Z,20.30
2023-04-11T17:37:02.252Z,11.93
2023-04-11T17:39:29.683Z,15.57
2023-04-11T17:41:57.622Z,16.42
2023-04-11T17:44:25.117Z,14.60
2023-04-11T17:46:54.416Z,14.77
2023-04-11T17:49:22.502Z,15.00
2023-04-11T17:51:59.092Z,17.45
2023-04-11T17:54:27.761Z,15.90
2023-04-11T17:56:56.452Z,17.75
2023-04-11T17:59:25.590Z,20.30
2023-04-11T18:01:59.559Z,9.25
2023-04-11T18:04:27.288Z,16.05
2023-04-11T18:06:55.097Z,17.15
2023-04-11T18:09:26.702Z,15.65
2023-04-11T18:11:54.282Z,17.00
2023-04-11T18:14:21.700Z,16.02
2023-04-11T18:16:49.285Z,15.75
2023-04-11T18:19:16.875Z,15.15
2023-04-11T18:21:44.377Z,19.98
2023-04-11T18:24:11.802Z,18.95
2023-04-11T18:26:39.202Z,16.95
2023-04-11T18:31:35.291Z,17.67
2023-04-11T18:34:03.792Z,23.73
2023-04-11T18:36:32.732Z,18.02
2023-04-11T18:39:00.314Z,16.83
2023-04-11T18:41:27.872Z,25.27
2023-04-11T18:43:55.484Z,20.30
2023-04-11T18:46:23.481Z,17.13
2023-04-11T18:48:51.013Z,25.30
2023-04-11T18:51:19.698Z,17.00
2023-04-11T18:53:49.025Z,14.82
2023-04-11T18:56:16.774Z,13.27
2023-04-11T18:58:46.575Z,18.05
2023-04-11T19:01:17.289Z,15.77
2023-04-11T19:03:45.919Z,11.70
2023-04-11T19:06:13.975Z,17.70
2023-04-11T19:08:41.742Z,14.45
2023-04-11T19:11:09.178Z,16.20
2023-04-11T19:16:03.963Z,15.20
2023-04-11T19:18:31.476Z,17.00
2023-04-11T19:20:59.118Z,13.65
2023-04-11T19:23:26.703Z,14.98
2023-04-11T19:25:54.952Z,7.15
2023-04-11T19:28:22.396Z,17.85
2023-04-11T19:30:49.956Z,14.48
2023-04-11T19:33:17.928Z,11.15
2023-04-11T19:35:45.459Z,11.82
2023-04-11T19:38:12.896Z,12.80
2023-04-11T19:40:40.357Z,9.98
2023-04-11T19:43:07.802Z,12.88
2023-04-11T19:45:35.297Z,14.30
2023-04-11T19:48:02.910Z,10.15
2023-04-11T19:50:30.928Z,15.30
2023-04-11T19:52:58.525Z,12.85
2023-04-11T19:55:27.431Z,11.07
2023-04-11T19:57:54.975Z,13.15
2023-04-11T20:00:22.761Z,9.40
2023-04-11T20:02:50.557Z,8.20
2023-04-11T20:05:20.012Z,9.60
2023-04-11T20:07:48.273Z,9.65
2023-04-11T20:10:16.505Z,6.80
2023-04-11T20:12:43.968Z,11.60
2023-04-11T20:15:11.924Z,14.95
2023-04-11T20:17:42.753Z,9.93
2023-04-11T20:20:12.706Z,8.35
2023-04-11T20:22:40.553Z,10.55
2023-04-11T20:25:08.396Z,8.68
2023-04-11T20:27:36.411Z,7.88
2023-04-11T20:30:07.095Z,11.88
2023-04-11T20:32:34.751Z,13.18
2023-04-11T20:35:02.410Z,7.78
2023-04-11T20:37:31.101Z,10.50
2023-04-11T20:39:58.769Z,10.93
2023-04-11T20:42:28.259Z,8.52
2023-04-11T20:45:08.304Z,12.55
2023-04-11T20:47:37.654Z,8.25
2023-04-11T20:50:07.478Z,14.25
2023-04-11T20:52:35.611Z,15.15
2023-04-11T20:55:04.149Z,9.63
2023-04-11T20:57:31.625Z,7.70
2023-04-11T20:59:59.391Z,6.82
2023-04-11T21:02:28.081Z,8.20
2023-04-11T21:04:55.953Z,8.23
2023-04-11T21:07:23.646Z,12.68
2023-04-11T21:09:51.971Z,11.68
2023-04-11T21:12:19.533Z,9.93
2023-04-11T21:14:47.008Z,10.73
2023-04-11T21:17:14.569Z,12.60
2023-04-11T21:19:42.112Z,12.95
2023-04-11T21:22:09.570Z,15.48
2023-04-11T21:24:36.989Z,10.85
2023-04-11T21:27:04.666Z,20.63
2023-04-11T21:29:32.072Z,14.40
2023-04-11T21:31:59.698Z,11.75
2023-04-11T21:34:27.275Z,10.50
2023-04-11T21:36:55.140Z,10.05
2023-04-11T21:39:22.648Z,11.82
2023-04-11T21:41:50.293Z,12.15
2023-04-11T21:44:17.861Z,12.20
2023-04-11T21:46:45.522Z,7.72
2023-04-11T21:49:13.009Z,10.68
2023-04-11T21:51:40.617Z,15.93
2023-04-11T21:54:08.084Z,12.25
2023-04-11T21:56:35.651Z,10.50
2023-04-11T21:59:03.010Z,11.93
2023-04-11T22:01:30.463Z,10.48
2023-04-11T22:03:59.436Z,13.13
2023-04-11T22:06:30.397Z,10.43
2023-04-11T22:08:58.386Z,9.75
2023-04-11T22:11:26.033Z,9.25
2023-04-11T22:13:53.560Z,11.75
2023-04-11T22:16:26.505Z,11.40
2023-04-11T22:18:54.508Z,7.97
2023-04-11T22:21:21.964Z,12.30
2023-04-11T22:23:57.882Z,11.05
2023-04-11T22:26:34.316Z,13.93
2023-04-11T22:29:05.796Z,12.33
2023-04-11T22:31:34.930Z,7.22
2023-04-11T22:34:02.892Z,10.50
2023-04-11T22:36:35.692Z,11.68
2023-04-11T22:39:07.288Z,10.88
2023-04-11T22:41:38.768Z,7.20
2023-04-11T22:44:07.037Z,7.45
2023-04-11T22:46:39.420Z,6.18
2023-04-11T22:49:09.716Z,6.18
2023-04-11T22:51:38.189Z,8.32
2023-04-11T22:54:05.826Z,9.13
2023-04-11T22:56:33.261Z,9.00
2023-04-11T22:59:01.086Z,8.77
2023-04-11T23:01:28.608Z,5.53
2023-04-11T23:03:56.520Z,9.63
2023-04-11T23:06:24.241Z,11.50
2023-04-11T23:08:54.091Z,6.13
2023-04-11T23:11:21.660Z,4.65
2023-04-11T23:13:52.817Z,2.05
2023-04-11T23:16:22.338Z,0.93
2023-04-11T23:18:49.746Z,0.63
2023-04-11T23:21:17.242Z,3.10
2023-04-11T23:23:45.375Z,1.92
2023-04-11T23:26:20.691Z,1.45
2023-04-11T23:28:48.876Z,0.52
2023-04-11T23:31:17.826Z,1.60
2023-04-11T23:33:45.428Z,2.38
2023-04-11T23:36:13.822Z,4.40
2023-04-11T23:38:42.232Z,2.58
2023-04-11T23:41:10.627Z,3.88
2023-04-11T23:43:38.133Z,1.98
2023-04-11T23:48:33.341Z,3.67
2023-04-11T23:51:01.474Z,3.00
2023-04-11T23:53:29.303Z,2.00
2023-04-11T23:55:57.233Z,5.72
2023-04-11T23:58:24.859Z,3.42
